createdAt,value
2022-09-29T00:00:17.808Z,19.12
2022-09-29T00:01:19.873Z,19.12
2022-09-29T00:02:21.680Z,19.12
2022-09-29T00:03:23.558Z,19.12
2022-09-29T00:04:25.438Z,19.12
2022-09-29T00:05:27.274Z,19.11
2022-09-29T00:06:29.117Z,19.12
2022-09-29T00:07:30.935Z,19.11
2022-09-29T00:08:32.787Z,19.11
2022-09-29T00:09:34.606Z,19.11
2022-09-29T00:10:36.434Z,19.11
2022-09-29T00:11:38.282Z,19.11
2022-09-29T00:12:40.107Z,19.10
2022-09-29T00:13:42.207Z,19.11
2022-09-29T00:14:47.732Z,19.09
2022-09-29T00:15:47.954Z,19.10
2022-09-29T00:16:49.818Z,19.09
2022-09-29T00:18:12.812Z,19.08
2022-09-29T00:18:55.277Z,19.08
2022-09-29T00:19:57.105Z,19.09
2022-09-29T00:20:58.932Z,19.08
2022-09-29T00:22:00.778Z,19.09
2022-09-29T00:23:02.603Z,19.08
2022-09-29T00:24:04.434Z,19.08
2022-09-29T00:25:06.242Z,19.07
2022-09-29T00:26:08.255Z,19.08
2022-09-29T00:27:10.120Z,19.07
2022-09-29T00:28:11.955Z,19.07
2022-09-29T00:29:14.462Z,19.07
2022-09-29T00:30:16.390Z,19.05
2022-09-29T00:31:18.248Z,19.06
2022-09-29T00:32:20.217Z,19.05
2022-09-29T00:33:22.043Z,19.05
2022-09-29T00:34:23.854Z,19.04
2022-09-29T00:35:25.648Z,19.05
2022-09-29T00:36:27.349Z,19.05
2022-09-29T00:37:29.197Z,19.04
2022-09-29T00:38:31.005Z,19.05
2022-09-29T00:39:32.809Z,19.03
2022-09-29T00:40:34.636Z,19.03
2022-09-29T00:41:36.418Z,19.03
2022-09-29T00:42:38.258Z,19.03
2022-09-29T00:43:40.052Z,19.03
2022-09-29T00:44:41.908Z,19.03
2022-09-29T00:45:43.770Z,19.03
2022-09-29T00:46:45.617Z,19.03
2022-09-29T00:47:47.342Z,19.03
2022-09-29T00:48:49.133Z,19.03
2022-09-29T00:49:50.939Z,19.01
2022-09-29T00:50:52.741Z,19.01
2022-09-29T00:51:54.540Z,19.00
2022-09-29T00:52:56.384Z,19.00
2022-09-29T00:53:58.172Z,19.00
2022-09-29T00:54:59.979Z,18.99
2022-09-29T00:56:01.772Z,18.99
2022-09-29T00:57:03.582Z,18.99
2022-09-29T00:58:05.421Z,18.98
2022-09-29T00:59:07.213Z,18.97
2022-09-29T01:00:10.951Z,18.95
2022-09-29T01:01:12.812Z,18.96
2022-09-29T01:02:14.677Z,18.95
2022-09-29T01:03:16.491Z,18.94
2022-09-29T01:04:18.274Z,18.94
2022-09-29T01:05:20.081Z,18.92
2022-09-29T01:06:21.995Z,18.92
2022-09-29T01:07:23.787Z,18.90
2022-09-29T01:08:25.604Z,18.90
2022-09-29T01:09:27.405Z,18.89
2022-09-29T01:10:29.204Z,18.89
2022-09-29T01:11:31.003Z,18.89
2022-09-29T01:12:32.802Z,18.87
2022-09-29T01:13:34.624Z,18.86
2022-09-29T01:14:36.419Z,18.85
2022-09-29T01:15:38.226Z,18.84
2022-09-29T01:16:40.335Z,18.83
2022-09-29T01:17:42.127Z,18.81
2022-09-29T01:18:43.954Z,18.82
2022-09-29T01:19:45.752Z,18.80
2022-09-29T01:20:47.555Z,18.79
2022-09-29T01:21:49.349Z,18.78
2022-09-29T01:22:51.141Z,18.78
2022-09-29T01:23:52.968Z,18.77
2022-09-29T01:24:54.763Z,18.76
2022-09-29T01:25:56.563Z,18.76
2022-09-29T01:26:58.368Z,18.76
2022-09-29T01:28:00.164Z,18.75
2022-09-29T01:29:01.991Z,18.74
2022-09-29T01:30:03.904Z,18.74
2022-09-29T01:31:06.087Z,18.74
2022-09-29T01:32:07.898Z,18.74
2022-09-29T01:33:09.700Z,18.73
2022-09-29T01:34:11.633Z,18.72
2022-09-29T01:35:13.448Z,18.72
2022-09-29T01:36:15.243Z,18.71
2022-09-29T01:37:17.041Z,18.71
2022-09-29T01:38:18.850Z,18.71
2022-09-29T01:39:20.692Z,18.69
2022-09-29T01:40:22.522Z,18.69
2022-09-29T01:41:24.288Z,18.68
2022-09-29T01:42:26.082Z,18.67
2022-09-29T01:43:27.888Z,18.66
2022-09-29T01:44:29.641Z,18.65
2022-09-29T01:45:31.487Z,18.63
2022-09-29T01:46:33.370Z,18.64
2022-09-29T01:47:35.166Z,18.63
2022-09-29T01:48:36.967Z,18.62
2022-09-29T01:49:38.817Z,18.60
2022-09-29T01:50:40.613Z,18.61
2022-09-29T01:51:42.409Z,18.59
2022-09-29T01:52:44.223Z,18.58
2022-09-29T01:53:46.011Z,18.57
2022-09-29T01:54:47.855Z,18.57
2022-09-29T01:55:49.661Z,18.57
2022-09-29T01:56:51.554Z,18.56
2022-09-29T01:57:53.260Z,18.55
2022-09-29T01:58:55.096Z,18.54
2022-09-29T01:59:56.966Z,18.53
2022-09-29T02:00:58.788Z,18.52
2022-09-29T02:02:01.064Z,18.53
2022-09-29T02:03:02.987Z,18.51
2022-09-29T02:04:04.786Z,18.50
2022-09-29T02:05:06.637Z,18.50
2022-09-29T02:06:08.950Z,18.49
2022-09-29T02:07:10.754Z,18.48
2022-09-29T02:08:12.559Z,18.47
2022-09-29T02:09:14.353Z,18.47
2022-09-29T02:10:16.293Z,18.46
2022-09-29T02:11:18.090Z,18.44
2022-09-29T02:12:19.901Z,18.43
2022-09-29T02:13:21.713Z,18.42
2022-09-29T02:14:23.501Z,18.41
2022-09-29T02:15:25.327Z,18.39
2022-09-29T02:16:27.133Z,18.38
2022-09-29T02:17:28.948Z,18.37
2022-09-29T02:18:30.755Z,18.36
2022-09-29T02:19:32.551Z,18.35
2022-09-29T02:20:34.373Z,18.33
2022-09-29T02:21:36.186Z,18.32
2022-09-29T02:22:37.889Z,18.31
2022-09-29T02:23:39.702Z,18.31
2022-09-29T02:24:41.492Z,18.30
2022-09-29T02:25:43.315Z,18.29
2022-09-29T02:26:45.121Z,18.29
2022-09-29T02:27:46.914Z,18.28
2022-09-29T02:28:48.627Z,18.27
2022-09-29T02:29:50.437Z,18.26
2022-09-29T02:30:52.251Z,18.25
2022-09-29T02:31:54.076Z,18.26
2022-09-29T02:32:56.123Z,18.23
2022-09-29T02:33:57.944Z,18.22
2022-09-29T02:34:59.730Z,18.21
2022-09-29T02:36:01.560Z,18.20
2022-09-29T02:37:03.377Z,18.19
2022-09-29T02:38:05.176Z,18.19
2022-09-29T02:39:06.974Z,18.18
2022-09-29T02:40:09.296Z,18.18
2022-09-29T02:41:11.188Z,18.17
2022-09-29T02:42:12.983Z,18.16
2022-09-29T02:43:14.787Z,18.16
2022-09-29T02:44:16.647Z,18.15
2022-09-29T02:45:18.503Z,18.16
2022-09-29T02:46:20.310Z,18.14
2022-09-29T02:47:22.139Z,18.12
2022-09-29T02:48:23.990Z,18.12
2022-09-29T02:49:25.818Z,18.13
2022-09-29T02:50:27.652Z,18.11
2022-09-29T02:51:29.506Z,18.10
2022-09-29T02:52:31.327Z,18.09
2022-09-29T02:53:33.148Z,18.08
2022-09-29T02:54:34.981Z,18.06
2022-09-29T02:55:36.822Z,18.05
2022-09-29T02:56:38.775Z,18.06
2022-09-29T02:57:40.584Z,18.05
2022-09-29T02:58:47.485Z,18.05
2022-09-29T02:59:46.068Z,18.04
2022-09-29T03:00:47.952Z,18.02
2022-09-29T03:01:49.768Z,18.02
2022-09-29T03:02:51.591Z,18.01
2022-09-29T03:03:53.559Z,18.01
2022-09-29T03:04:55.434Z,18.01
2022-09-29T03:05:57.257Z,18.02
2022-09-29T03:06:59.118Z,18.01
2022-09-29T03:08:00.944Z,18.00
2022-09-29T03:09:02.779Z,18.01
2022-09-29T03:10:04.719Z,18.00
2022-09-29T03:11:06.519Z,18.00
2022-09-29T03:12:08.382Z,17.98
2022-09-29T03:13:10.203Z,17.98
2022-09-29T03:14:12.104Z,17.97
2022-09-29T03:15:13.932Z,17.96
2022-09-29T03:16:17.213Z,17.95
2022-09-29T03:17:19.129Z,17.94
2022-09-29T03:18:20.967Z,17.91
2022-09-29T03:19:22.831Z,17.91
2022-09-29T03:20:24.637Z,17.89
2022-09-29T03:21:26.434Z,17.89
2022-09-29T03:22:28.304Z,17.88
2022-09-29T03:23:30.131Z,17.86
2022-09-29T03:24:31.970Z,17.86
2022-09-29T03:25:33.779Z,17.85
2022-09-29T03:26:35.592Z,17.86
2022-09-29T03:27:37.443Z,17.85
2022-09-29T03:28:39.265Z,17.84
2022-09-29T03:29:41.082Z,17.84
2022-09-29T03:30:42.990Z,17.84
2022-09-29T03:31:44.876Z,17.83
2022-09-29T03:32:46.782Z,17.83
2022-09-29T03:33:48.609Z,17.83
2022-09-29T03:34:50.446Z,17.81
2022-09-29T03:35:52.261Z,17.82
2022-09-29T03:36:54.088Z,17.81
2022-09-29T03:37:55.953Z,17.81
2022-09-29T03:38:57.788Z,17.81
2022-09-29T03:39:59.619Z,17.80
2022-09-29T03:41:01.531Z,17.80
2022-09-29T03:42:03.485Z,17.79
2022-09-29T03:43:05.336Z,17.79
2022-09-29T03:44:07.157Z,17.79
2022-09-29T03:45:08.989Z,17.79
2022-09-29T03:46:12.693Z,17.79
2022-09-29T03:47:14.481Z,17.79
2022-09-29T03:48:16.305Z,17.77
2022-09-29T03:49:18.235Z,17.77
2022-09-29T03:50:20.180Z,17.77
2022-09-29T03:51:21.987Z,17.76
2022-09-29T03:52:23.800Z,17.76
2022-09-29T03:53:25.653Z,17.75
2022-09-29T03:54:27.491Z,17.75
2022-09-29T03:55:29.325Z,17.74
2022-09-29T03:56:31.143Z,17.75
2022-09-29T03:57:32.961Z,17.74
2022-09-29T03:58:34.814Z,17.74
2022-09-29T03:59:36.648Z,17.74
2022-09-29T04:00:38.596Z,17.73
2022-09-29T04:01:40.386Z,17.73
2022-09-29T04:02:42.191Z,17.73
2022-09-29T04:03:44.050Z,17.73
2022-09-29T04:04:45.884Z,17.73
2022-09-29T04:05:48.054Z,17.73
2022-09-29T04:06:49.874Z,17.72
2022-09-29T04:07:51.697Z,17.71
2022-09-29T04:08:53.535Z,17.71
2022-09-29T04:09:55.360Z,17.70
2022-09-29T04:10:57.201Z,17.70
2022-09-29T04:11:59.030Z,17.70
2022-09-29T04:13:00.855Z,17.70
2022-09-29T04:14:02.734Z,17.70
2022-09-29T04:15:04.555Z,17.71
2022-09-29T04:16:06.616Z,17.70
2022-09-29T04:17:08.499Z,17.70
2022-09-29T04:18:10.314Z,17.69
2022-09-29T04:19:12.234Z,17.70
2022-09-29T04:20:15.653Z,17.70
2022-09-29T04:21:17.579Z,17.71
2022-09-29T04:22:19.408Z,17.68
2022-09-29T04:23:21.225Z,17.71
2022-09-29T04:24:23.089Z,17.70
2022-09-29T04:25:24.912Z,17.71
2022-09-29T04:26:26.727Z,17.71
2022-09-29T04:27:28.544Z,17.71
2022-09-29T04:28:30.358Z,17.73
2022-09-29T04:29:32.230Z,17.73
2022-09-29T04:30:34.062Z,17.75
2022-09-29T04:31:35.981Z,17.76
2022-09-29T04:32:37.801Z,17.76
2022-09-29T04:33:39.634Z,17.78
2022-09-29T04:34:41.506Z,17.79
2022-09-29T04:35:43.519Z,17.80
2022-09-29T04:36:45.470Z,17.81
2022-09-29T04:37:47.306Z,17.83
2022-09-29T04:38:49.113Z,17.83
2022-09-29T04:39:50.974Z,17.85
2022-09-29T04:40:52.877Z,17.85
2022-09-29T04:41:55.126Z,17.85
2022-09-29T04:42:56.973Z,17.81
2022-09-29T04:43:58.834Z,17.79
2022-09-29T04:45:00.693Z,17.77
2022-09-29T04:46:02.554Z,17.80
2022-09-29T04:47:04.444Z,17.83
2022-09-29T04:48:06.277Z,17.86
2022-09-29T04:49:08.097Z,17.91
2022-09-29T04:50:10.393Z,18.00
2022-09-29T04:51:12.222Z,18.04
2022-09-29T04:52:14.110Z,18.11
2022-09-29T04:53:15.931Z,18.17
2022-09-29T04:54:17.767Z,18.22
2022-09-29T04:55:19.643Z,18.36
2022-09-29T04:56:21.557Z,18.49
2022-09-29T04:57:23.407Z,18.63
2022-09-29T04:58:25.246Z,18.74
2022-09-29T04:59:28.438Z,18.96
2022-09-29T05:00:30.216Z,18.96
2022-09-29T05:01:32.022Z,19.05
2022-09-29T05:02:33.885Z,19.12
2022-09-29T05:03:35.752Z,19.19
2022-09-29T05:04:37.520Z,19.27
2022-09-29T05:05:39.353Z,19.33
2022-09-29T05:06:41.168Z,19.39
2022-09-29T05:07:43.052Z,19.46
2022-09-29T05:08:44.796Z,19.52
2022-09-29T05:09:46.600Z,19.57
2022-09-29T05:10:48.431Z,19.65
2022-09-29T05:11:50.253Z,19.69
2022-09-29T05:12:52.058Z,19.74
2022-09-29T05:13:53.847Z,19.80
2022-09-29T05:14:55.646Z,19.83
2022-09-29T05:15:57.527Z,19.89
2022-09-29T05:16:59.582Z,19.92
2022-09-29T05:18:01.370Z,19.96
2022-09-29T05:19:03.171Z,19.99
2022-09-29T05:20:05.169Z,20.03
2022-09-29T05:22:10.846Z,20.10
2022-09-29T05:23:12.661Z,20.14
2022-09-29T05:24:14.459Z,20.16
2022-09-29T05:25:16.269Z,20.17
2022-09-29T05:26:18.116Z,20.22
2022-09-29T05:27:19.939Z,20.23
2022-09-29T05:28:21.744Z,20.26
2022-09-29T05:29:23.536Z,20.28
2022-09-29T05:30:25.359Z,20.30
2022-09-29T05:31:27.277Z,20.31
2022-09-29T05:32:29.018Z,20.33
2022-09-29T05:33:30.830Z,20.35
2022-09-29T05:34:32.615Z,20.38
2022-09-29T05:35:34.419Z,20.39
2022-09-29T05:36:36.277Z,20.41
2022-09-29T05:37:38.063Z,20.45
2022-09-29T05:38:39.887Z,20.46
2022-09-29T05:39:41.694Z,20.46
2022-09-29T05:40:43.551Z,20.48
2022-09-29T05:41:45.432Z,20.49
2022-09-29T05:42:47.238Z,20.50
2022-09-29T05:43:49.035Z,20.49
2022-09-29T05:44:50.850Z,20.49
2022-09-29T05:45:52.720Z,20.46
2022-09-29T05:46:54.536Z,20.43
2022-09-29T05:47:56.300Z,20.41
2022-09-29T05:48:58.118Z,20.38
2022-09-29T05:50:00.145Z,20.37
2022-09-29T05:51:01.918Z,20.35
2022-09-29T05:52:03.740Z,20.32
2022-09-29T05:53:05.550Z,20.32
2022-09-29T05:54:07.312Z,20.30
2022-09-29T05:55:09.112Z,20.28
2022-09-29T05:56:11.234Z,20.24
2022-09-29T05:57:13.061Z,20.22
2022-09-29T05:58:14.866Z,20.21
2022-09-29T05:59:16.782Z,20.18
2022-09-29T06:00:19.311Z,20.17
2022-09-29T06:01:21.158Z,20.16
2022-09-29T06:02:23.042Z,20.14
2022-09-29T06:03:24.864Z,20.13
2022-09-29T06:04:26.680Z,20.12
2022-09-29T06:05:28.464Z,20.11
2022-09-29T06:06:30.558Z,20.07
2022-09-29T06:07:32.408Z,20.07
2022-09-29T06:08:34.219Z,20.06
2022-09-29T06:09:36.044Z,20.04
2022-09-29T06:10:37.835Z,20.02
2022-09-29T06:11:39.648Z,19.99
2022-09-29T06:12:41.515Z,19.99
2022-09-29T06:13:43.314Z,19.97
2022-09-29T06:14:45.113Z,19.97
2022-09-29T06:15:46.903Z,19.98
2022-09-29T06:16:48.759Z,19.97
2022-09-29T06:17:50.660Z,19.97
2022-09-29T06:18:52.452Z,19.95
2022-09-29T07:09:28.493Z,20.10
2022-09-29T07:10:30.323Z,20.10
2022-09-29T07:11:32.107Z,20.11
2022-09-29T07:12:33.906Z,20.12
2022-09-29T07:13:35.710Z,20.13
2022-09-29T07:14:37.540Z,20.12
2022-09-29T07:15:39.335Z,20.12
2022-09-29T07:16:41.168Z,20.13
2022-09-29T07:17:42.960Z,20.14
2022-09-29T07:18:44.821Z,20.16
2022-09-29T07:19:46.654Z,20.15
2022-09-29T07:20:48.485Z,20.17
2022-09-29T07:21:50.287Z,20.17
2022-09-29T07:22:52.105Z,20.18
2022-09-29T07:23:53.904Z,20.19
2022-09-29T07:24:55.722Z,20.19
2022-09-29T07:25:57.548Z,20.21
2022-09-29T07:26:59.355Z,20.20
2022-09-29T07:28:01.264Z,20.21
2022-09-29T07:29:03.079Z,20.24
2022-09-29T07:30:05.122Z,20.24
2022-09-29T07:31:14.365Z,20.25
2022-09-29T07:32:23.823Z,20.25
2022-09-29T07:33:14.270Z,20.25
2022-09-29T07:34:16.093Z,20.26
2022-09-29T07:35:17.915Z,20.24
2022-09-29T07:36:20.010Z,20.26
2022-09-29T07:37:21.821Z,20.25
2022-09-29T07:38:23.607Z,20.27
2022-09-29T07:39:25.422Z,20.28
2022-09-29T07:40:27.318Z,20.27
2022-09-29T07:41:29.139Z,20.26
2022-09-29T07:42:30.937Z,20.27
2022-09-29T07:43:32.957Z,20.26
2022-09-29T07:44:34.777Z,20.27
2022-09-29T07:45:36.667Z,20.28
2022-09-29T07:46:38.429Z,20.30
2022-09-29T07:47:40.271Z,20.30
2022-09-29T07:48:42.075Z,20.31
2022-09-29T07:49:43.879Z,20.32
2022-09-29T07:50:45.713Z,20.31
2022-09-29T07:51:47.522Z,20.33
2022-09-29T07:52:49.349Z,20.34
2022-09-29T07:53:51.160Z,20.33
2022-09-29T07:54:52.960Z,20.34
2022-09-29T07:55:54.841Z,20.34
2022-09-29T07:56:56.773Z,20.34
2022-09-29T07:57:58.567Z,20.35
2022-09-29T07:59:01.065Z,20.38
2022-09-29T08:00:02.937Z,20.38
2022-09-29T08:01:04.850Z,20.40
2022-09-29T08:02:06.763Z,20.41
2022-09-29T08:03:08.548Z,20.43
2022-09-29T08:04:10.395Z,20.43
2022-09-29T08:05:12.236Z,20.45
2022-09-29T08:06:15.903Z,20.47
2022-09-29T08:07:17.733Z,20.47
2022-09-29T08:08:19.658Z,20.48
2022-09-29T08:09:29.189Z,20.49
2022-09-29T08:10:25.165Z,20.50
2022-09-29T08:11:31.434Z,20.48
2022-09-29T08:12:41.742Z,20.48
2022-09-29T08:13:34.327Z,20.49
2022-09-29T08:14:38.749Z,20.51
2022-09-29T08:15:39.822Z,20.51
2022-09-29T08:16:41.744Z,20.52
2022-09-29T08:17:43.632Z,20.53
2022-09-29T08:18:45.464Z,20.54
2022-09-29T08:19:47.349Z,20.54
2022-09-29T08:20:49.148Z,20.54
2022-09-29T08:21:51.006Z,20.56
2022-09-29T08:22:52.828Z,20.56
2022-09-29T08:23:54.635Z,20.57
2022-09-29T08:24:56.483Z,20.57
2022-09-29T08:26:01.671Z,20.56
2022-09-29T08:27:13.470Z,20.57
2022-09-29T08:28:05.687Z,20.60
2022-09-29T08:29:08.962Z,20.61
2022-09-29T08:30:12.003Z,20.62
2022-09-29T08:31:13.796Z,20.63
2022-09-29T08:32:15.678Z,20.63
2022-09-29T08:33:17.519Z,20.64
2022-09-29T08:34:19.660Z,20.65
2022-09-29T08:35:21.585Z,20.66
2022-09-29T08:36:23.432Z,20.67
2022-09-29T08:37:25.327Z,20.68
2022-09-29T08:38:27.149Z,20.70
2022-09-29T08:39:28.974Z,20.69
2022-09-29T08:40:30.852Z,20.70
2022-09-29T08:41:32.641Z,20.69
2022-09-29T08:42:45.553Z,20.70
2022-09-29T08:43:38.173Z,20.71
2022-09-29T08:44:40.515Z,20.74
2022-09-29T08:45:54.344Z,20.74
2022-09-29T08:46:46.458Z,20.74
2022-09-29T08:47:48.543Z,20.75
2022-09-29T08:48:57.910Z,20.74
2022-09-29T08:49:54.074Z,20.75
2022-09-29T08:50:55.932Z,20.76
2022-09-29T08:52:07.682Z,20.77
2022-09-29T08:53:01.460Z,20.80
2022-09-29T08:54:04.068Z,20.80
2022-09-29T08:55:18.677Z,20.80
2022-09-29T08:56:09.949Z,20.79
2022-09-29T08:57:11.766Z,20.78
2022-09-29T08:58:13.624Z,20.79
2022-09-29T08:59:15.559Z,20.79
2022-09-29T09:00:17.429Z,20.80
2022-09-29T09:01:19.283Z,20.80
2022-09-29T09:02:21.178Z,20.80
2022-09-29T09:03:23.131Z,20.80
2022-09-29T09:04:24.956Z,20.80
2022-09-29T09:05:26.769Z,20.82
2022-09-29T09:06:28.592Z,20.82
2022-09-29T09:07:30.417Z,20.84
2022-09-29T09:08:32.326Z,20.84
2022-09-29T09:09:34.112Z,20.84
2022-09-29T09:10:35.929Z,20.85
2022-09-29T09:11:37.745Z,20.85
2022-09-29T09:12:39.583Z,20.87
2022-09-29T09:13:41.452Z,20.88
2022-09-29T09:14:43.344Z,20.89
2022-09-29T09:15:45.176Z,20.91
2022-09-29T09:16:47.084Z,20.92
2022-09-29T09:17:48.939Z,20.92
2022-09-29T09:18:50.862Z,20.93
2022-09-29T09:19:52.734Z,20.94
2022-09-29T09:20:54.578Z,20.96
2022-09-29T09:21:56.410Z,20.96
2022-09-29T09:22:58.237Z,20.99
2022-09-29T09:24:00.943Z,20.99
2022-09-29T09:25:02.981Z,21.01
2022-09-29T09:26:04.916Z,21.01
2022-09-29T09:27:06.796Z,21.01
2022-09-29T09:28:08.627Z,21.02
2022-09-29T09:29:10.523Z,21.02
2022-09-29T09:30:13.243Z,21.03
2022-09-29T09:31:17.415Z,21.05
2022-09-29T09:32:28.767Z,21.05
2022-09-29T09:33:32.105Z,21.06
2022-09-29T09:34:45.415Z,21.06
2022-09-29T09:35:59.152Z,21.06
2022-09-29T09:37:08.277Z,21.08
2022-09-29T09:38:08.891Z,21.09
2022-09-29T09:39:12.908Z,21.10
2022-09-29T09:40:15.355Z,21.11
2022-09-29T09:41:17.215Z,21.11
2022-09-29T09:42:21.148Z,21.11
2022-09-29T09:43:24.471Z,21.14
2022-09-29T09:44:26.612Z,21.14
2022-09-29T09:45:29.897Z,21.13
2022-09-29T09:46:44.192Z,21.13
2022-09-29T09:47:48.151Z,21.14
2022-09-29T09:50:34.173Z,21.15
2022-09-29T09:51:28.138Z,21.15
2022-09-29T09:52:29.949Z,21.16
2022-09-29T09:53:31.826Z,21.16
2022-09-29T09:54:33.661Z,21.16
2022-09-29T09:55:35.501Z,21.17
2022-09-29T09:56:37.383Z,21.17
2022-09-29T09:57:39.198Z,21.17
2022-09-29T09:58:41.022Z,21.17
2022-09-29T09:59:42.849Z,21.18
2022-09-29T10:00:44.802Z,21.18
2022-09-29T10:01:47.146Z,21.19
2022-09-29T10:02:49.387Z,21.18
2022-09-29T10:03:51.250Z,21.16
2022-09-29T10:04:53.077Z,21.17
2022-09-29T10:05:54.925Z,21.18
2022-09-29T10:06:57.101Z,21.19
2022-09-29T10:07:58.921Z,21.18
2022-09-29T10:09:00.785Z,21.20
2022-09-29T10:10:02.574Z,21.21
2022-09-29T10:11:04.380Z,21.22
2022-09-29T10:12:06.209Z,21.22
2022-09-29T10:13:08.026Z,21.22
2022-09-29T10:14:11.659Z,21.23
2022-09-29T10:15:13.576Z,21.25
2022-09-29T10:16:15.714Z,21.25
2022-09-29T10:17:17.527Z,21.25
2022-09-29T10:18:19.618Z,21.27
2022-09-29T10:19:21.574Z,21.28
2022-09-29T10:20:26.063Z,21.28
2022-09-29T10:21:27.908Z,21.29
2022-09-29T10:22:29.772Z,21.29
2022-09-29T10:23:31.568Z,21.29
2022-09-29T10:24:33.418Z,21.29
2022-09-29T10:25:35.226Z,21.29
2022-09-29T10:26:37.124Z,21.30
2022-09-29T10:27:38.967Z,21.31
2022-09-29T10:28:40.767Z,21.31
2022-09-29T10:29:42.567Z,21.32
2022-09-29T10:30:44.454Z,21.31
2022-09-29T10:31:46.386Z,21.31
2022-09-29T10:32:48.292Z,21.32
2022-09-29T10:33:50.112Z,21.32
2022-09-29T10:34:51.959Z,21.32
2022-09-29T10:35:53.709Z,21.32
2022-09-29T10:36:55.501Z,21.32
2022-09-29T10:37:57.366Z,21.34
2022-09-29T10:39:00.922Z,21.34
2022-09-29T10:40:02.801Z,21.34
2022-09-29T10:41:04.643Z,21.33
2022-09-29T10:42:06.403Z,21.34
2022-09-29T10:43:08.237Z,21.33
2022-09-29T10:44:10.070Z,21.34
2022-09-29T10:45:11.879Z,21.35
2022-09-29T10:46:14.317Z,21.35
2022-09-29T10:47:16.180Z,21.36
2022-09-29T10:48:18.056Z,21.35
2022-09-29T10:49:19.871Z,21.35
2022-09-29T10:50:21.767Z,21.35
2022-09-29T10:51:23.493Z,21.35
2022-09-29T10:52:25.286Z,21.35
2022-09-29T10:53:27.115Z,21.36
2022-09-29T10:54:28.910Z,21.36
2022-09-29T10:55:30.717Z,21.36
2022-09-29T10:56:32.523Z,21.38
2022-09-29T10:57:34.337Z,21.38
2022-09-29T10:58:45.291Z,21.38
2022-09-29T10:59:39.854Z,21.38
2022-09-29T11:00:41.656Z,21.38
2022-09-29T11:01:43.685Z,21.38
2022-09-29T11:02:45.543Z,21.40
2022-09-29T11:03:47.470Z,21.38
2022-09-29T11:04:49.278Z,21.38
2022-09-29T11:05:51.081Z,21.38
2022-09-29T11:06:52.884Z,21.37
2022-09-29T11:07:54.759Z,21.36
2022-09-29T11:08:56.660Z,21.35
2022-09-29T11:09:58.498Z,21.36
2022-09-29T11:11:00.305Z,21.36
2022-09-29T11:12:06.173Z,21.37
2022-09-29T11:13:05.728Z,21.37
2022-09-29T11:14:07.558Z,21.37
2022-09-29T11:15:09.393Z,21.37
2022-09-29T11:16:12.110Z,21.36
2022-09-29T11:17:13.978Z,21.37
2022-09-29T11:18:15.929Z,21.38
2022-09-29T11:19:17.810Z,21.38
2022-09-29T11:20:19.686Z,21.38
2022-09-29T11:21:21.474Z,21.38
2022-09-29T11:22:23.290Z,21.39
2022-09-29T11:23:25.092Z,21.39
2022-09-29T11:24:26.938Z,21.40
2022-09-29T11:25:28.737Z,21.40
2022-09-29T11:26:30.541Z,21.38
2022-09-29T11:27:34.158Z,21.40
2022-09-29T11:28:35.957Z,21.41
2022-09-29T11:29:37.827Z,21.40
2022-09-29T11:30:39.655Z,21.39
2022-09-29T11:31:41.426Z,21.42
2022-09-29T11:32:43.228Z,21.41
2022-09-29T11:33:45.093Z,21.41
2022-09-29T11:34:46.949Z,21.42
2022-09-29T11:35:48.741Z,21.42
2022-09-29T11:36:50.590Z,21.40
2022-09-29T11:37:52.355Z,21.40
2022-09-29T11:38:54.649Z,21.40
2022-09-29T11:39:56.481Z,21.38
2022-09-29T11:40:58.281Z,21.39
2022-09-29T11:42:00.092Z,21.38
2022-09-29T11:43:01.888Z,21.39
2022-09-29T11:44:03.678Z,21.40
2022-09-29T11:45:05.546Z,21.40
2022-09-29T11:46:07.629Z,21.39
2022-09-29T11:47:09.869Z,21.39
2022-09-29T11:48:11.664Z,21.39
2022-09-29T11:49:13.863Z,21.40
2022-09-29T11:50:15.852Z,21.41
2022-09-29T11:51:17.669Z,21.40
2022-09-29T11:52:19.476Z,21.40
2022-09-29T11:53:21.279Z,21.38
2022-09-29T11:54:23.080Z,21.38
2022-09-29T11:55:24.903Z,21.38
2022-09-29T11:56:26.702Z,21.39
2022-09-29T11:57:28.504Z,21.38
2022-09-29T11:58:30.321Z,21.38
2022-09-29T11:59:32.110Z,21.38
2022-09-29T12:00:33.955Z,21.39
2022-09-29T12:01:35.964Z,21.40
2022-09-29T12:02:37.844Z,21.40
2022-09-29T12:03:39.580Z,21.40
2022-09-29T12:04:41.458Z,21.40
2022-09-29T12:05:43.328Z,21.41
2022-09-29T12:06:45.130Z,21.42
2022-09-29T12:07:46.927Z,21.43
2022-09-29T12:08:48.731Z,21.44
2022-09-29T12:09:50.537Z,21.43
2022-09-29T12:10:52.615Z,21.43
2022-09-29T12:12:18.765Z,21.44
2022-09-29T12:12:58.057Z,21.44
2022-09-29T12:13:59.897Z,21.43
2022-09-29T12:15:01.704Z,21.42
2022-09-29T12:16:03.545Z,21.43
2022-09-29T12:17:05.406Z,21.42
2022-09-29T12:18:07.252Z,21.41
2022-09-29T12:19:09.073Z,21.43
2022-09-29T12:20:11.565Z,21.45
2022-09-29T12:21:15.611Z,21.44
2022-09-29T12:22:16.948Z,21.45
2022-09-29T12:23:18.743Z,21.47
2022-09-29T12:24:20.684Z,21.45
2022-09-29T12:25:22.615Z,21.45
2022-09-29T12:26:24.506Z,21.46
2022-09-29T12:27:26.309Z,21.47
2022-09-29T12:28:28.137Z,21.46
2022-09-29T12:29:29.957Z,21.46
2022-09-29T12:30:31.802Z,21.46
2022-09-29T12:31:33.660Z,21.47
2022-09-29T12:32:35.474Z,21.47
2022-09-29T12:33:37.301Z,21.47
2022-09-29T12:34:39.129Z,21.49
2022-09-29T12:35:40.980Z,21.49
2022-09-29T12:36:42.839Z,21.47
2022-09-29T12:39:10.173Z,21.49
2022-09-29T12:40:09.820Z,21.50
2022-09-29T12:41:11.678Z,21.50
2022-09-29T12:42:13.536Z,21.52
2022-09-29T12:43:15.378Z,21.52
2022-09-29T12:44:17.263Z,21.52
2022-09-29T12:45:19.133Z,21.52
2022-09-29T12:46:21.062Z,21.52
2022-09-29T12:47:22.937Z,21.52
2022-09-29T12:48:24.765Z,21.52
2022-09-29T12:49:26.698Z,21.52
2022-09-29T12:50:28.523Z,21.52
2022-09-29T12:51:30.345Z,21.51
2022-09-29T12:52:32.216Z,21.51
2022-09-29T12:53:34.044Z,21.50
2022-09-29T12:54:35.868Z,21.50
2022-09-29T12:55:37.742Z,21.50
2022-09-29T12:56:39.556Z,21.51
2022-09-29T12:57:41.416Z,21.51
2022-09-29T12:58:43.475Z,21.51
2022-09-29T12:59:45.300Z,21.50
2022-09-29T13:00:47.330Z,21.50
2022-09-29T13:01:49.452Z,21.49
2022-09-29T13:02:51.324Z,21.50
2022-09-29T13:03:53.155Z,21.49
2022-09-29T13:04:55.015Z,21.50
2022-09-29T13:05:56.824Z,21.50
2022-09-29T13:06:58.928Z,21.49
2022-09-29T13:08:00.810Z,21.48
2022-09-29T13:09:02.703Z,21.49
2022-09-29T13:10:04.948Z,21.49
2022-09-29T13:11:06.788Z,21.48
2022-09-29T13:12:08.604Z,21.47
2022-09-29T13:13:10.478Z,21.47
2022-09-29T13:14:12.316Z,21.45
2022-09-29T13:15:14.167Z,21.42
2022-09-29T13:16:16.045Z,21.40
2022-09-29T13:17:17.817Z,21.38
2022-09-29T13:18:19.680Z,21.38
2022-09-29T13:19:39.424Z,21.37
2022-09-29T13:20:25.167Z,21.37
2022-09-29T13:21:27.574Z,21.37
2022-09-29T13:22:29.428Z,21.37
2022-09-29T13:23:31.296Z,21.35
2022-09-29T13:24:33.111Z,21.37
2022-09-29T13:25:34.972Z,21.36
2022-09-29T13:26:36.824Z,21.34
2022-09-29T13:27:38.648Z,21.34
2022-09-29T13:28:40.500Z,21.33
2022-09-29T13:29:42.355Z,21.34
2022-09-29T13:30:44.417Z,21.34
2022-09-29T13:31:46.344Z,21.30
2022-09-29T13:32:48.167Z,21.34
2022-09-29T13:33:50.046Z,21.34
2022-09-29T13:34:51.881Z,21.35
2022-09-29T13:35:53.701Z,21.34
2022-09-29T13:36:55.641Z,21.33
2022-09-29T13:37:57.483Z,21.34
2022-09-29T13:38:59.360Z,21.33
2022-09-29T13:40:03.707Z,21.33
2022-09-29T13:41:04.807Z,21.33
2022-09-29T13:42:06.646Z,21.32
2022-09-29T13:43:08.484Z,21.33
2022-09-29T13:44:10.353Z,21.33
2022-09-29T13:45:12.181Z,21.33
2022-09-29T13:46:14.031Z,21.34
2022-09-29T13:47:15.843Z,21.35
2022-09-29T13:48:17.680Z,21.33
2022-09-29T13:49:19.609Z,21.33
2022-09-29T13:50:21.428Z,21.33
2022-09-29T13:51:23.254Z,21.33
2022-09-29T13:52:25.078Z,21.33
2022-09-29T13:53:26.984Z,21.33
2022-09-29T13:54:29.027Z,21.34
2022-09-29T13:55:30.936Z,21.33
2022-09-29T13:56:32.737Z,21.34
2022-09-29T13:57:34.555Z,21.34
2022-09-29T13:58:36.377Z,21.34
2022-09-29T13:59:38.306Z,21.35
2022-09-29T14:00:40.115Z,21.33
2022-09-29T14:01:41.986Z,21.34
2022-09-29T14:02:43.856Z,21.34
2022-09-29T14:03:45.738Z,21.34
2022-09-29T14:04:47.629Z,21.34
2022-09-29T14:05:49.465Z,21.33
2022-09-29T14:06:51.285Z,21.34
2022-09-29T14:07:53.373Z,21.33
2022-09-29T14:08:55.213Z,21.34
2022-09-29T14:10:59.803Z,21.34
2022-09-29T14:12:01.617Z,21.33
2022-09-29T14:13:03.477Z,21.34